sensor_id;sensor_type;location;lat;lon;timestamp;P1;durP1;ratioP1;P2;durP2;ratioP2
32934;SDS011;19292;51.532;7.650;2022-07-06T00:00:05;5.65;;;1.70;;
32934;SDS011;19292;51.532;7.650;2022-07-06T00:02:31;3.95;;;2.05;;
32934;SDS011;19292;51.532;7.650;2022-07-06T00:04:56;4.55;;;1.77;;
32934;SDS011;19292;51.532;7.650;2022-07-06T00:07:22;3.83;;;1.58;;
32934;SDS011;19292;51.532;7.650;2022-07-06T00:09:48;3.20;;;1.55;;
32934;SDS011;19292;51.532;7.650;2022-07-06T00:12:14;5.10;;;2.08;;
32934;SDS011;19292;51.532;7.650;2022-07-06T00:14:39;3.08;;;1.60;;
32934;SDS011;19292;51.532;7.650;2022-07-06T00:17:05;3.63;;;1.90;;
32934;SDS011;19292;51.532;7.650;2022-07-06T00:19:30;6.57;;;2.28;;
32934;SDS011;19292;51.532;7.650;2022-07-06T00:21:56;4.93;;;2.00;;
32934;SDS011;19292;51.532;7.650;2022-07-06T00:24:21;6.78;;;2.05;;
32934;SDS011;19292;51.532;7.650;2022-07-06T00:26:46;4.88;;;1.83;;
32934;SDS011;19292;51.532;7.650;2022-07-06T00:29:12;5.13;;;2.08;;
32934;SDS011;19292;51.532;7.650;2022-07-06T00:31:37;3.13;;;2.00;;
32934;SDS011;19292;51.532;7.650;2022-07-06T00:34:03;7.00;;;1.90;;
32934;SDS011;19292;51.532;7.650;2022-07-06T00:36:28;5.32;;;1.98;;
32934;SDS011;19292;51.532;7.650;2022-07-06T00:38:53;5.72;;;2.15;;
32934;SDS011;19292;51.532;7.650;2022-07-06T00:41:19;3.85;;;2.10;;
32934;SDS011;19292;51.532;7.650;2022-07-06T00:43:48;4.38;;;2.00;;
32934;SDS011;19292;51.532;7.650;2022-07-06T00:46:17;4.93;;;2.28;;
32934;SDS011;19292;51.532;7.650;2022-07-06T00:48:43;7.72;;;2.40;;
32934;SDS011;19292;51.532;7.650;2022-07-06T00:51:09;8.45;;;2.38;;
32934;SDS011;19292;51.532;7.650;2022-07-06T00:53:35;4.28;;;2.17;;
32934;SDS011;19292;51.532;7.650;2022-07-06T00:56:00;5.82;;;2.38;;
32934;SDS011;19292;51.532;7.650;2022-07-06T00:58:26;5.95;;;2.13;;
32934;SDS011;19292;51.532;7.650;2022-07-06T01:00:51;7.43;;;2.55;;
32934;SDS011;19292;51.532;7.650;2022-07-06T01:03:17;5.07;;;2.00;;
32934;SDS011;19292;51.532;7.650;2022-07-06T01:05:43;5.68;;;2.03;;
32934;SDS011;19292;51.532;7.650;2022-07-06T01:08:08;4.35;;;2.17;;
32934;SDS011;19292;51.532;7.650;2022-07-06T01:10:34;7.90;;;2.50;;
32934;SDS011;19292;51.532;7.650;2022-07-06T01:12:59;7.72;;;2.13;;
32934;SDS011;19292;51.532;7.650;2022-07-06T01:15:25;4.90;;;2.10;;
32934;SDS011;19292;51.532;7.650;2022-07-06T01:17:51;3.25;;;1.90;;
32934;SDS011;19292;51.532;7.650;2022-07-06T01:20:20;4.22;;;2.20;;
32934;SDS011;19292;51.532;7.650;2022-07-06T01:22:47;8.07;;;2.28;;
32934;SDS011;19292;51.532;7.650;2022-07-06T01:25:13;4.80;;;1.80;;
32934;SDS011;19292;51.532;7.650;2022-07-06T01:27:39;4.38;;;1.92;;
32934;SDS011;19292;51.532;7.650;2022-07-06T01:30:06;7.45;;;2.33;;
32934;SDS011;19292;51.532;7.650;2022-07-06T01:32:42;4.50;;;2.30;;
32934;SDS011;19292;51.532;7.650;2022-07-06T01:35:08;5.47;;;2.50;;
32934;SDS011;19292;51.532;7.650;2022-07-06T01:37:36;5.60;;;2.47;;
32934;SDS011;19292;51.532;7.650;2022-07-06T01:40:02;4.50;;;2.28;;
32934;SDS011;19292;51.532;7.650;2022-07-06T01:42:29;3.88;;;1.90;;
32934;SDS011;19292;51.532;7.650;2022-07-06T01:44:55;5.70;;;2.20;;
32934;SDS011;19292;51.532;7.650;2022-07-06T01:47:20;4.85;;;2.28;;
32934;SDS011;19292;51.532;7.650;2022-07-06T01:49:46;2.83;;;1.98;;
32934;SDS011;19292;51.532;7.650;2022-07-06T01:52:11;3.40;;;2.20;;
32934;SDS011;19292;51.532;7.650;2022-07-06T01:54:36;7.20;;;2.50;;
32934;SDS011;19292;51.532;7.650;2022-07-06T01:57:02;5.22;;;2.20;;
32934;SDS011;19292;51.532;7.650;2022-07-06T01:59:27;4.60;;;2.42;;
32934;SDS011;19292;51.532;7.650;2022-07-06T02:01:53;4.63;;;2.40;;
32934;SDS011;19292;51.532;7.650;2022-07-06T02:04:18;4.40;;;2.47;;
32934;SDS011;19292;51.532;7.650;2022-07-06T02:06:44;4.65;;;2.20;;
32934;SDS011;19292;51.532;7.650;2022-07-06T02:09:09;4.75;;;2.10;;
32934;SDS011;19292;51.532;7.650;2022-07-06T02:11:34;5.50;;;2.28;;
32934;SDS011;19292;51.532;7.650;2022-07-06T02:13:59;9.05;;;2.70;;
32934;SDS011;19292;51.532;7.650;2022-07-06T02:16:25;5.75;;;2.33;;
32934;SDS011;19292;51.532;7.650;2022-07-06T02:18:50;5.22;;;2.55;;
32934;SDS011;19292;51.532;7.650;2022-07-06T02:21:16;8.25;;;2.70;;
32934;SDS011;19292;51.532;7.650;2022-07-06T02:23:41;6.38;;;2.25;;
32934;SDS011;19292;51.532;7.650;2022-07-06T02:26:07;5.22;;;2.33;;
32934;SDS011;19292;51.532;7.650;2022-07-06T02:28:32;3.25;;;1.98;;
32934;SDS011;19292;51.532;7.650;2022-07-06T02:30:58;4.15;;;1.90;;
32934;SDS011;19292;51.532;7.650;2022-07-06T02:33:23;2.97;;;1.85;;
32934;SDS011;19292;51.532;7.650;2022-07-06T02:35:49;5.57;;;2.45;;
32934;SDS011;19292;51.532;7.650;2022-07-06T02:38:14;2.38;;;1.90;;
32934;SDS011;19292;51.532;7.650;2022-07-06T02:40:39;5.80;;;2.50;;
32934;SDS011;19292;51.532;7.650;2022-07-06T02:43:05;4.30;;;1.98;;
32934;SDS011;19292;51.532;7.650;2022-07-06T02:45:30;5.90;;;2.33;;
32934;SDS011;19292;51.532;7.650;2022-07-06T02:47:56;6.55;;;2.63;;
32934;SDS011;19292;51.532;7.650;2022-07-06T02:50:22;3.03;;;2.10;;
32934;SDS011;19292;51.532;7.650;2022-07-06T02:52:48;6.05;;;2.10;;
32934;SDS011;19292;51.532;7.650;2022-07-06T02:55:13;6.45;;;2.17;;
32934;SDS011;19292;51.532;7.650;2022-07-06T02:57:39;4.07;;;2.08;;
32934;SDS011;19292;51.532;7.650;2022-07-06T03:00:04;10.45;;;2.50;;
32934;SDS011;19292;51.532;7.650;2022-07-06T03:02:31;5.60;;;2.30;;
32934;SDS011;19292;51.532;7.650;2022-07-06T03:04:56;6.72;;;2.40;;
32934;SDS011;19292;51.532;7.650;2022-07-06T03:07:22;5.22;;;2.50;;
32934;SDS011;19292;51.532;7.650;2022-07-06T03:09:48;4.50;;;2.13;;
32934;SDS011;19292;51.532;7.650;2022-07-06T03:12:13;4.25;;;2.13;;
32934;SDS011;19292;51.532;7.650;2022-07-06T03:14:38;4.22;;;1.95;;
32934;SDS011;19292;51.532;7.650;2022-07-06T03:17:04;4.30;;;2.17;;
32934;SDS011;19292;51.532;7.650;2022-07-06T03:19:29;5.90;;;2.35;;
32934;SDS011;19292;51.532;7.650;2022-07-06T03:21:54;6.32;;;2.53;;
32934;SDS011;19292;51.532;7.650;2022-07-06T03:24:20;3.70;;;1.95;;
32934;SDS011;19292;51.532;7.650;2022-07-06T03:26:45;3.75;;;1.95;;
32934;SDS011;19292;51.532;7.650;2022-07-06T03:29:11;7.28;;;2.13;;
32934;SDS011;19292;51.532;7.650;2022-07-06T03:31:36;5.05;;;2.50;;
32934;SDS011;19292;51.532;7.650;2022-07-06T03:34:02;6.00;;;2.17;;
32934;SDS011;19292;51.532;7.650;2022-07-06T03:36:27;3.08;;;2.25;;
32934;SDS011;19292;51.532;7.650;2022-07-06T03:38:53;3.97;;;2.20;;
32934;SDS011;19292;51.532;7.650;2022-07-06T03:41:18;7.47;;;2.53;;
32934;SDS011;19292;51.532;7.650;2022-07-06T03:43:44;6.80;;;2.80;;
32934;SDS011;19292;51.532;7.650;2022-07-06T03:46:09;7.57;;;3.20;;
32934;SDS011;19292;51.532;7.650;2022-07-06T03:48:34;7.70;;;2.55;;
32934;SDS011;19292;51.532;7.650;2022-07-06T03:51:00;5.88;;;2.42;;
32934;SDS011;19292;51.532;7.650;2022-07-06T03:53:25;5.00;;;2.58;;
32934;SDS011;19292;51.532;7.650;2022-07-06T03:55:51;6.28;;;2.40;;
32934;SDS011;19292;51.532;7.650;2022-07-06T03:58:35;4.38;;;2.40;;
32934;SDS011;19292;51.532;7.650;2022-07-06T04:01:00;5.15;;;2.42;;
32934;SDS011;19292;51.532;7.650;2022-07-06T04:03:26;5.78;;;2.30;;
32934;SDS011;19292;51.532;7.650;2022-07-06T04:05:51;5.93;;;2.70;;
32934;SDS011;19292;51.532;7.650;2022-07-06T04:08:17;4.80;;;2.20;;
32934;SDS011;19292;51.532;7.650;2022-07-06T04:10:42;5.70;;;2.13;;
32934;SDS011;19292;51.532;7.650;2022-07-06T04:13:08;5.97;;;2.15;;
32934;SDS011;19292;51.532;7.650;2022-07-06T04:15:33;5.30;;;1.92;;
32934;SDS011;19292;51.532;7.650;2022-07-06T04:17:58;6.20;;;2.28;;
32934;SDS011;19292;51.532;7.650;2022-07-06T04:20:24;3.58;;;2.17;;
32934;SDS011;19292;51.532;7.650;2022-07-06T04:22:50;6.95;;;2.75;;
32934;SDS011;19292;51.532;7.650;2022-07-06T04:25:16;5.10;;;2.40;;
32934;SDS011;19292;51.532;7.650;2022-07-06T04:27:42;3.75;;;2.10;;
32934;SDS011;19292;51.532;7.650;2022-07-06T04:30:08;7.00;;;3.22;;
32934;SDS011;19292;51.532;7.650;2022-07-06T04:32:34;4.75;;;2.40;;
32934;SDS011;19292;51.532;7.650;2022-07-06T04:34:59;6.28;;;2.38;;
32934;SDS011;19292;51.532;7.650;2022-07-06T04:37:25;5.32;;;2.33;;
32934;SDS011;19292;51.532;7.650;2022-07-06T04:39:50;5.55;;;2.05;;
32934;SDS011;19292;51.532;7.650;2022-07-06T04:42:15;5.72;;;2.45;;
32934;SDS011;19292;51.532;7.650;2022-07-06T04:44:41;7.75;;;2.75;;
32934;SDS011;19292;51.532;7.650;2022-07-06T04:47:06;5.40;;;2.13;;
32934;SDS011;19292;51.532;7.650;2022-07-06T04:49:32;5.78;;;2.08;;
32934;SDS011;19292;51.532;7.650;2022-07-06T04:51:57;4.95;;;2.20;;
32934;SDS011;19292;51.532;7.650;2022-07-06T04:54:22;7.38;;;2.70;;
32934;SDS011;19292;51.532;7.650;2022-07-06T04:56:48;4.40;;;2.30;;
32934;SDS011;19292;51.532;7.650;2022-07-06T04:59:13;5.25;;;2.63;;
32934;SDS011;19292;51.532;7.650;2022-07-06T05:01:39;4.43;;;2.67;;
32934;SDS011;19292;51.532;7.650;2022-07-06T05:04:05;6.03;;;2.50;;
32934;SDS011;19292;51.532;7.650;2022-07-06T05:06:31;9.73;;;2.90;;
32934;SDS011;19292;51.532;7.650;2022-07-06T05:08:56;3.58;;;2.15;;
32934;SDS011;19292;51.532;7.650;2022-07-06T05:11:24;5.63;;;2.47;;
32934;SDS011;19292;51.532;7.650;2022-07-06T05:13:49;3.90;;;2.70;;
32934;SDS011;19292;51.532;7.650;2022-07-06T05:16:15;5.93;;;2.72;;
32934;SDS011;19292;51.532;7.650;2022-07-06T05:18:40;7.72;;;2.70;;
32934;SDS011;19292;51.532;7.650;2022-07-06T05:21:05;8.35;;;2.45;;
32934;SDS011;19292;51.532;7.650;2022-07-06T05:23:31;5.40;;;2.40;;
32934;SDS011;19292;51.532;7.650;2022-07-06T05:25:56;4.55;;;2.35;;
32934;SDS011;19292;51.532;7.650;2022-07-06T05:28:21;6.20;;;2.75;;
32934;SDS011;19292;51.532;7.650;2022-07-06T05:30:47;5.82;;;2.35;;
32934;SDS011;19292;51.532;7.650;2022-07-06T05:33:12;9.63;;;2.90;;
32934;SDS011;19292;51.532;7.650;2022-07-06T05:35:37;5.57;;;2.50;;
32934;SDS011;19292;51.532;7.650;2022-07-06T05:38:03;5.55;;;2.30;;
32934;SDS011;19292;51.532;7.650;2022-07-06T05:40:29;7.75;;;3.35;;
32934;SDS011;19292;51.532;7.650;2022-07-06T05:42:55;6.57;;;2.67;;
32934;SDS011;19292;51.532;7.650;2022-07-06T05:45:20;5.57;;;2.83;;
32934;SDS011;19292;51.532;7.650;2022-07-06T05:47:47;6.70;;;2.83;;
32934;SDS011;19292;51.532;7.650;2022-07-06T05:50:31;8.55;;;3.00;;
32934;SDS011;19292;51.532;7.650;2022-07-06T05:52:58;4.93;;;2.88;;
32934;SDS011;19292;51.532;7.650;2022-07-06T05:55:27;11.85;;;3.35;;
32934;SDS011;19292;51.532;7.650;2022-07-06T05:57:53;4.75;;;2.30;;
32934;SDS011;19292;51.532;7.650;2022-07-06T06:00:24;8.80;;;2.92;;
32934;SDS011;19292;51.532;7.650;2022-07-06T06:02:51;7.75;;;2.83;;
32934;SDS011;19292;51.532;7.650;2022-07-06T06:05:16;13.23;;;2.33;;
32934;SDS011;19292;51.532;7.650;2022-07-06T06:07:42;5.72;;;2.60;;
32934;SDS011;19292;51.532;7.650;2022-07-06T06:10:09;4.47;;;2.67;;
32934;SDS011;19292;51.532;7.650;2022-07-06T06:12:36;4.47;;;2.10;;
32934;SDS011;19292;51.532;7.650;2022-07-06T06:15:02;7.35;;;3.15;;
32934;SDS011;19292;51.532;7.650;2022-07-06T06:17:28;6.53;;;2.70;;
32934;SDS011;19292;51.532;7.650;2022-07-06T06:19:53;4.63;;;3.00;;
32934;SDS011;19292;51.532;7.650;2022-07-06T06:22:19;19.00;;;17.77;;
32934;SDS011;19292;51.532;7.650;2022-07-06T06:24:44;7.43;;;2.75;;
32934;SDS011;19292;51.532;7.650;2022-07-06T06:27:10;4.65;;;2.05;;
32934;SDS011;19292;51.532;7.650;2022-07-06T06:29:36;5.32;;;2.20;;
32934;SDS011;19292;51.532;7.650;2022-07-06T06:32:01;7.65;;;2.13;;
32934;SDS011;19292;51.532;7.650;2022-07-06T06:34:27;7.25;;;2.22;;
32934;SDS011;19292;51.532;7.650;2022-07-06T06:36:52;7.80;;;2.47;;
32934;SDS011;19292;51.532;7.650;2022-07-06T06:39:17;4.07;;;1.73;;
32934;SDS011;19292;51.532;7.650;2022-07-06T06:41:43;6.68;;;2.80;;
32934;SDS011;19292;51.532;7.650;2022-07-06T06:44:08;6.45;;;2.20;;
32934;SDS011;19292;51.532;7.650;2022-07-06T06:46:33;4.82;;;1.92;;
32934;SDS011;19292;51.532;7.650;2022-07-06T06:48:59;5.63;;;1.80;;
32934;SDS011;19292;51.532;7.650;2022-07-06T06:51:24;4.25;;;2.22;;
32934;SDS011;19292;51.532;7.650;2022-07-06T06:53:49;5.75;;;1.92;;
32934;SDS011;19292;51.532;7.650;2022-07-06T06:56:15;7.22;;;2.85;;
32934;SDS011;19292;51.532;7.650;2022-07-06T06:58:40;3.15;;;1.88;;
32934;SDS011;19292;51.532;7.650;2022-07-06T07:01:06;7.13;;;2.25;;
32934;SDS011;19292;51.532;7.650;2022-07-06T07:03:31;6.03;;;2.53;;
32934;SDS011;19292;51.532;7.650;2022-07-06T07:05:57;6.32;;;1.83;;
32934;SDS011;19292;51.532;7.650;2022-07-06T07:08:22;4.90;;;1.85;;
32934;SDS011;19292;51.532;7.650;2022-07-06T07:10:48;6.47;;;2.10;;
32934;SDS011;19292;51.532;7.650;2022-07-06T07:13:14;6.32;;;2.10;;
32934;SDS011;19292;51.532;7.650;2022-07-06T07:15:39;3.97;;;1.85;;
32934;SDS011;19292;51.532;7.650;2022-07-06T07:18:04;6.95;;;1.90;;
32934;SDS011;19292;51.532;7.650;2022-07-06T07:20:30;5.35;;;2.00;;
32934;SDS011;19292;51.532;7.650;2022-07-06T07:22:56;4.68;;;1.58;;
32934;SDS011;19292;51.532;7.650;2022-07-06T07:25:22;9.70;;;1.98;;
32934;SDS011;19292;51.532;7.650;2022-07-06T07:27:47;4.60;;;1.52;;
32934;SDS011;19292;51.532;7.650;2022-07-06T07:30:13;4.63;;;1.60;;
32934;SDS011;19292;51.532;7.650;2022-07-06T07:32:38;8.18;;;1.85;;
32934;SDS011;19292;51.532;7.650;2022-07-06T07:35:05;4.90;;;1.80;;
32934;SDS011;19292;51.532;7.650;2022-07-06T07:37:31;4.00;;;1.38;;
32934;SDS011;19292;51.532;7.650;2022-07-06T07:39:56;6.05;;;1.63;;
32934;SDS011;19292;51.532;7.650;2022-07-06T07:42:22;5.53;;;1.48;;
32934;SDS011;19292;51.532;7.650;2022-07-06T07:44:47;7.25;;;1.77;;
32934;SDS011;19292;51.532;7.650;2022-07-06T07:47:13;4.65;;;2.15;;
32934;SDS011;19292;51.532;7.650;2022-07-06T07:49:38;6.88;;;1.98;;
32934;SDS011;19292;51.532;7.650;2022-07-06T07:52:03;5.47;;;1.63;;
32934;SDS011;19292;51.532;7.650;2022-07-06T07:54:29;4.07;;;1.25;;
32934;SDS011;19292;51.532;7.650;2022-07-06T07:56:54;6.25;;;1.83;;
32934;SDS011;19292;51.532;7.650;2022-07-06T07:59:19;3.50;;;1.10;;
32934;SDS011;19292;51.532;7.650;2022-07-06T08:01:45;7.57;;;1.33;;
32934;SDS011;19292;51.532;7.650;2022-07-06T08:04:11;3.20;;;1.20;;
32934;SDS011;19292;51.532;7.650;2022-07-06T08:06:36;7.15;;;1.75;;
32934;SDS011;19292;51.532;7.650;2022-07-06T08:09:02;5.32;;;1.27;;
32934;SDS011;19292;51.532;7.650;2022-07-06T08:11:29;8.77;;;7.13;;
32934;SDS011;19292;51.532;7.650;2022-07-06T08:13:55;4.82;;;1.38;;
32934;SDS011;19292;51.532;7.650;2022-07-06T08:16:20;7.22;;;1.30;;
32934;SDS011;19292;51.532;7.650;2022-07-06T08:18:45;2.83;;;1.48;;
32934;SDS011;19292;51.532;7.650;2022-07-06T08:21:11;4.93;;;1.33;;
32934;SDS011;19292;51.532;7.650;2022-07-06T08:23:36;6.90;;;1.50;;
32934;SDS011;19292;51.532;7.650;2022-07-06T08:26:02;3.17;;;1.20;;
32934;SDS011;19292;51.532;7.650;2022-07-06T08:28:28;7.07;;;1.23;;
32934;SDS011;19292;51.532;7.650;2022-07-06T08:30:53;5.60;;;1.40;;
32934;SDS011;19292;51.532;7.650;2022-07-06T08:33:19;8.88;;;1.70;;
32934;SDS011;19292;51.532;7.650;2022-07-06T08:35:45;2.22;;;1.05;;
32934;SDS011;19292;51.532;7.650;2022-07-06T08:38:10;4.88;;;1.30;;
32934;SDS011;19292;51.532;7.650;2022-07-06T08:40:36;6.30;;;1.58;;
32934;SDS011;19292;51.532;7.650;2022-07-06T08:43:03;4.55;;;1.10;;
32934;SDS011;19292;51.532;7.650;2022-07-06T08:45:29;3.83;;;1.15;;
32934;SDS011;19292;51.532;7.650;2022-07-06T08:47:55;4.25;;;1.17;;
32934;SDS011;19292;51.532;7.650;2022-07-06T08:50:24;4.45;;;1.40;;
32934;SDS011;19292;51.532;7.650;2022-07-06T08:52:50;3.95;;;1.27;;
32934;SDS011;19292;51.532;7.650;2022-07-06T08:55:15;3.35;;;1.50;;
32934;SDS011;19292;51.532;7.650;2022-07-06T08:57:42;4.95;;;1.30;;
32934;SDS011;19292;51.532;7.650;2022-07-06T09:00:12;2.72;;;1.10;;
32934;SDS011;19292;51.532;7.650;2022-07-06T09:02:39;4.80;;;1.50;;
32934;SDS011;19292;51.532;7.650;2022-07-06T09:05:05;3.80;;;1.20;;
32934;SDS011;19292;51.532;7.650;2022-07-06T09:07:31;3.85;;;1.27;;
32934;SDS011;19292;51.532;7.650;2022-07-06T09:09:57;5.68;;;1.48;;
32934;SDS011;19292;51.532;7.650;2022-07-06T09:12:26;4.00;;;0.98;;
32934;SDS011;19292;51.532;7.650;2022-07-06T09:14:54;6.97;;;1.73;;
32934;SDS011;19292;51.532;7.650;2022-07-06T09:17:20;5.28;;;1.20;;
32934;SDS011;19292;51.532;7.650;2022-07-06T09:19:45;4.75;;;1.23;;
32934;SDS011;19292;51.532;7.650;2022-07-06T09:22:11;2.15;;;1.05;;
32934;SDS011;19292;51.532;7.650;2022-07-06T09:24:49;2.35;;;1.52;;
32934;SDS011;19292;51.532;7.650;2022-07-06T09:27:15;2.55;;;0.82;;
32934;SDS011;19292;51.532;7.650;2022-07-06T09:29:42;4.00;;;1.10;;
32934;SDS011;19292;51.532;7.650;2022-07-06T09:32:07;2.17;;;0.88;;
32934;SDS011;19292;51.532;7.650;2022-07-06T09:37:08;8.68;;;1.40;;
32934;SDS011;19292;51.532;7.650;2022-07-06T09:39:33;2.53;;;1.38;;
32934;SDS011;19292;51.532;7.650;2022-07-06T09:41:59;3.67;;;1.08;;
32934;SDS011;19292;51.532;7.650;2022-07-06T09:46:56;2.72;;;1.20;;
32934;SDS011;19292;51.532;7.650;2022-07-06T09:49:22;2.95;;;0.70;;
32934;SDS011;19292;51.532;7.650;2022-07-06T09:51:48;3.50;;;0.95;;
32934;SDS011;19292;51.532;7.650;2022-07-06T09:54:15;4.75;;;1.00;;
32934;SDS011;19292;51.532;7.650;2022-07-06T09:56:42;4.53;;;1.30;;
32934;SDS011;19292;51.532;7.650;2022-07-06T09:59:11;4.32;;;1.30;;
32934;SDS011;19292;51.532;7.650;2022-07-06T10:01:37;7.07;;;1.08;;
32934;SDS011;19292;51.532;7.650;2022-07-06T10:04:05;2.85;;;0.90;;
32934;SDS011;19292;51.532;7.650;2022-07-06T10:06:31;4.13;;;1.02;;
32934;SDS011;19292;51.532;7.650;2022-07-06T10:08:57;2.72;;;0.80;;
32934;SDS011;19292;51.532;7.650;2022-07-06T10:11:23;8.50;;;1.17;;
32934;SDS011;19292;51.532;7.650;2022-07-06T10:13:49;4.25;;;0.85;;
32934;SDS011;19292;51.532;7.650;2022-07-06T10:16:15;2.30;;;0.75;;
32934;SDS011;19292;51.532;7.650;2022-07-06T10:18:40;2.35;;;0.80;;
32934;SDS011;19292;51.532;7.650;2022-07-06T10:21:07;2.60;;;0.80;;
32934;SDS011;19292;51.532;7.650;2022-07-06T10:23:33;2.05;;;0.95;;
32934;SDS011;19292;51.532;7.650;2022-07-06T10:25:59;5.00;;;0.65;;
32934;SDS011;19292;51.532;7.650;2022-07-06T10:28:25;3.95;;;1.23;;
32934;SDS011;19292;51.532;7.650;2022-07-06T10:30:51;4.50;;;1.20;;
32934;SDS011;19292;51.532;7.650;2022-07-06T10:33:17;7.45;;;1.45;;
32934;SDS011;19292;51.532;7.650;2022-07-06T10:35:42;2.33;;;1.10;;
32934;SDS011;19292;51.532;7.650;2022-07-06T10:38:09;1.58;;;0.80;;
32934;SDS011;19292;51.532;7.650;2022-07-06T10:40:35;2.55;;;0.90;;
32934;SDS011;19292;51.532;7.650;2022-07-06T10:43:37;4.95;;;1.23;;
32934;SDS011;19292;51.532;7.650;2022-07-06T10:46:13;1.98;;;0.80;;
32934;SDS011;19292;51.532;7.650;2022-07-06T10:48:41;2.78;;;1.00;;
32934;SDS011;19292;51.532;7.650;2022-07-06T10:51:07;5.47;;;1.80;;
32934;SDS011;19292;51.532;7.650;2022-07-06T10:53:36;1.50;;;1.35;;
32934;SDS011;19292;51.532;7.650;2022-07-06T10:56:07;2.75;;;1.92;;
32934;SDS011;19292;51.532;7.650;2022-07-06T11:01:07;2.75;;;2.47;;
32934;SDS011;19292;51.532;7.650;2022-07-06T11:03:34;2.65;;;2.33;;
32934;SDS011;19292;51.532;7.650;2022-07-06T11:11:18;4.35;;;3.67;;
32934;SDS011;19292;51.532;7.650;2022-07-06T11:13:58;3.72;;;3.35;;
32934;SDS011;19292;51.532;7.650;2022-07-06T11:16:27;3.83;;;3.03;;
32934;SDS011;19292;51.532;7.650;2022-07-06T11:19:01;4.72;;;2.35;;
32934;SDS011;19292;51.532;7.650;2022-07-06T11:21:32;2.67;;;2.35;;
32934;SDS011;19292;51.532;7.650;2022-07-06T11:24:00;3.00;;;2.80;;
32934;SDS011;19292;51.532;7.650;2022-07-06T11:26:25;3.45;;;2.33;;
32934;SDS011;19292;51.532;7.650;2022-07-06T11:28:52;3.72;;;3.22;;
32934;SDS011;19292;51.532;7.650;2022-07-06T11:31:18;9.15;;;8.48;;
32934;SDS011;19292;51.532;7.650;2022-07-06T11:33:47;8.35;;;7.35;;
32934;SDS011;19292;51.532;7.650;2022-07-06T11:36:13;13.02;;;12.25;;
32934;SDS011;19292;51.532;7.650;2022-07-06T11:38:39;7.35;;;6.75;;
32934;SDS011;19292;51.532;7.650;2022-07-06T11:41:04;9.30;;;8.80;;
32934;SDS011;19292;51.532;7.650;2022-07-06T11:43:30;10.98;;;10.40;;
32934;SDS011;19292;51.532;7.650;2022-07-06T11:45:55;16.67;;;15.63;;
32934;SDS011;19292;51.532;7.650;2022-07-06T11:48:21;11.30;;;10.60;;
32934;SDS011;19292;51.532;7.650;2022-07-06T11:51:02;6.18;;;5.70;;
32934;SDS011;19292;51.532;7.650;2022-07-06T11:53:28;8.85;;;5.03;;
32934;SDS011;19292;51.532;7.650;2022-07-06T11:55:54;4.88;;;4.45;;
32934;SDS011;19292;51.532;7.650;2022-07-06T11:58:20;6.60;;;4.28;;
32934;SDS011;19292;51.532;7.650;2022-07-06T12:01:03;3.72;;;3.55;;
32934;SDS011;19292;51.532;7.650;2022-07-06T12:03:35;3.85;;;3.65;;
32934;SDS011;19292;51.532;7.650;2022-07-06T12:06:04;4.63;;;4.05;;
32934;SDS011;19292;51.532;7.650;2022-07-06T12:08:31;3.90;;;3.45;;
32934;SDS011;19292;51.532;7.650;2022-07-06T12:10:58;7.38;;;4.03;;
32934;SDS011;19292;51.532;7.650;2022-07-06T12:13:24;5.07;;;2.65;;
32934;SDS011;19292;51.532;7.650;2022-07-06T12:15:49;6.00;;;5.63;;
32934;SDS011;19292;51.532;7.650;2022-07-06T12:18:15;10.73;;;10.13;;
32934;SDS011;19292;51.532;7.650;2022-07-06T12:20:41;13.77;;;12.90;;
32934;SDS011;19292;51.532;7.650;2022-07-06T12:23:06;16.05;;;14.95;;
32934;SDS011;19292;51.532;7.650;2022-07-06T12:25:33;10.95;;;10.23;;
32934;SDS011;19292;51.532;7.650;2022-07-06T12:27:59;12.23;;;11.13;;
32934;SDS011;19292;51.532;7.650;2022-07-06T12:30:25;14.90;;;13.68;;
32934;SDS011;19292;51.532;7.650;2022-07-06T12:33:10;24.08;;;22.33;;
32934;SDS011;19292;51.532;7.650;2022-07-06T12:35:37;13.57;;;12.77;;
32934;SDS011;19292;51.532;7.650;2022-07-06T12:38:02;18.08;;;16.05;;
32934;SDS011;19292;51.532;7.650;2022-07-06T12:40:28;19.85;;;18.30;;
32934;SDS011;19292;51.532;7.650;2022-07-06T12:42:54;55.80;;;50.35;;
32934;SDS011;19292;51.532;7.650;2022-07-06T12:45:19;16.90;;;15.93;;
32934;SDS011;19292;51.532;7.650;2022-07-06T12:48:01;19.10;;;17.98;;
32934;SDS011;19292;51.532;7.650;2022-07-06T12:50:59;18.15;;;17.13;;
32934;SDS011;19292;51.532;7.650;2022-07-06T12:53:24;16.15;;;15.23;;
32934;SDS011;19292;51.532;7.650;2022-07-06T12:56:12;18.40;;;17.08;;
32934;SDS011;19292;51.532;7.650;2022-07-06T12:58:38;40.20;;;37.88;;
32934;SDS011;19292;51.532;7.650;2022-07-06T13:01:04;15.20;;;14.25;;
32934;SDS011;19292;51.532;7.650;2022-07-06T13:03:39;21.50;;;20.23;;
32934;SDS011;19292;51.532;7.650;2022-07-06T13:06:05;16.65;;;15.65;;
32934;SDS011;19292;51.532;7.650;2022-07-06T13:08:30;11.98;;;11.18;;
32934;SDS011;19292;51.532;7.650;2022-07-06T13:10:56;14.90;;;14.07;;
32934;SDS011;19292;51.532;7.650;2022-07-06T13:13:21;15.65;;;14.73;;
32934;SDS011;19292;51.532;7.650;2022-07-06T13:15:47;18.63;;;17.63;;
32934;SDS011;19292;51.532;7.650;2022-07-06T13:18:13;17.08;;;15.88;;
32934;SDS011;19292;51.532;7.650;2022-07-06T13:20:38;21.27;;;20.10;;
32934;SDS011;19292;51.532;7.650;2022-07-06T13:23:03;20.38;;;19.27;;
32934;SDS011;19292;51.532;7.650;2022-07-06T13:25:29;21.52;;;20.33;;
32934;SDS011;19292;51.532;7.650;2022-07-06T13:27:54;21.08;;;19.85;;
32934;SDS011;19292;51.532;7.650;2022-07-06T13:30:19;17.13;;;16.23;;
32934;SDS011;19292;51.532;7.650;2022-07-06T13:32:45;14.82;;;13.90;;
32934;SDS011;19292;51.532;7.650;2022-07-06T13:35:10;19.05;;;17.80;;
32934;SDS011;19292;51.532;7.650;2022-07-06T13:37:35;18.88;;;17.83;;
32934;SDS011;19292;51.532;7.650;2022-07-06T13:40:01;16.83;;;15.82;;
32934;SDS011;19292;51.532;7.650;2022-07-06T13:42:27;14.63;;;13.82;;
32934;SDS011;19292;51.532;7.650;2022-07-06T13:44:52;16.33;;;15.43;;
32934;SDS011;19292;51.532;7.650;2022-07-06T13:47:17;16.45;;;15.43;;
32934;SDS011;19292;51.532;7.650;2022-07-06T13:49:43;28.75;;;27.27;;
32934;SDS011;19292;51.532;7.650;2022-07-06T13:52:12;19.58;;;18.48;;
32934;SDS011;19292;51.532;7.650;2022-07-06T13:54:37;20.55;;;19.40;;
32934;SDS011;19292;51.532;7.650;2022-07-06T13:57:03;20.25;;;19.08;;
32934;SDS011;19292;51.532;7.650;2022-07-06T13:59:29;24.17;;;22.58;;
32934;SDS011;19292;51.532;7.650;2022-07-06T14:01:55;16.20;;;15.32;;
32934;SDS011;19292;51.532;7.650;2022-07-06T14:04:20;13.70;;;12.93;;
32934;SDS011;19292;51.532;7.650;2022-07-06T14:06:46;18.67;;;17.60;;
32934;SDS011;19292;51.532;7.650;2022-07-06T14:09:11;26.77;;;25.33;;
32934;SDS011;19292;51.532;7.650;2022-07-06T14:11:36;15.52;;;14.43;;
32934;SDS011;19292;51.532;7.650;2022-07-06T14:14:02;17.60;;;16.60;;
32934;SDS011;19292;51.532;7.650;2022-07-06T14:16:27;19.40;;;18.38;;
32934;SDS011;19292;51.532;7.650;2022-07-06T14:18:53;15.95;;;15.05;;
32934;SDS011;19292;51.532;7.650;2022-07-06T14:21:18;15.88;;;14.88;;
32934;SDS011;19292;51.532;7.650;2022-07-06T14:23:43;10.52;;;9.80;;
32934;SDS011;19292;51.532;7.650;2022-07-06T14:26:09;8.13;;;5.43;;
32934;SDS011;19292;51.532;7.650;2022-07-06T14:28:34;2.78;;;2.55;;
32934;SDS011;19292;51.532;7.650;2022-07-06T14:31:00;5.28;;;2.85;;
32934;SDS011;19292;51.532;7.650;2022-07-06T14:33:27;7.45;;;3.00;;
32934;SDS011;19292;51.532;7.650;2022-07-06T14:35:53;3.17;;;2.97;;
32934;SDS011;19292;51.532;7.650;2022-07-06T14:38:19;6.78;;;6.20;;
32934;SDS011;19292;51.532;7.650;2022-07-06T14:40:45;6.82;;;6.20;;
32934;SDS011;19292;51.532;7.650;2022-07-06T14:43:12;8.10;;;7.40;;
32934;SDS011;19292;51.532;7.650;2022-07-06T14:45:38;15.23;;;14.25;;
32934;SDS011;19292;51.532;7.650;2022-07-06T14:48:04;16.95;;;15.88;;
32934;SDS011;19292;51.532;7.650;2022-07-06T14:50:30;13.52;;;12.60;;